P4MALC GMAD-GMAT
Flight info
| Callsign | P4MALC |
|---|---|
| Flight time | 0h 59m |
| Altitude | 7000 |
| Route | ARSOL DCT DIDAN DCT GLM DCT TNN |
| Aircraft | BT36/L-BDFGLORY/S |
Departure
| Time | 2026-05-05 14:15 |
|---|---|
| Airport | Al Massira Airport (GMAD) |
Arrival
| Time | 2026-05-05 15:15 |
|---|---|
| Airport | Tan Tan Airport (GMAT) |
| Time | Latitude | Longitude | Altitude | Speed | Heading |
|---|---|---|---|---|---|
| 2026-05-05 13:56 | 30.33072 | -9.42054 | 226 ft | 0 kts | 180° |
| 2026-05-05 14:09 | 30.33071 | -9.42054 | 226 ft | 1 kts | 181° |
| 2026-05-05 14:09 | 30.33026 | -9.42025 | 226 ft | 14 kts | 124° |
| 2026-05-05 14:10 | 30.33003 | -9.41928 | 226 ft | 8 kts | 131° |
| 2026-05-05 14:10 | 30.32933 | -9.41925 | 226 ft | 13 kts | 182° |
| 2026-05-05 14:10 | 30.32876 | -9.41927 | 226 ft | 0 kts | 180° |
| 2026-05-05 14:10 | 30.32872 | -9.41927 | 226 ft | 4 kts | 179° |
| 2026-05-05 14:11 | 30.32830 | -9.41891 | 226 ft | 13 kts | 94° |
| 2026-05-05 14:11 | 30.32826 | -9.41758 | 226 ft | 20 kts | 92° |
| 2026-05-05 14:11 | 30.32823 | -9.41578 | 226 ft | 22 kts | 92° |
| 2026-05-05 14:11 | 30.32723 | -9.41516 | 226 ft | 17 kts | 177° |
| 2026-05-05 14:12 | 30.32610 | -9.41519 | 226 ft | 16 kts | 180° |
| 2026-05-05 14:12 | 30.32505 | -9.41521 | 226 ft | 15 kts | 184° |
| 2026-05-05 14:12 | 30.32415 | -9.41527 | 226 ft | 9 kts | 183° |
| 2026-05-05 14:12 | 30.32387 | -9.41527 | 226 ft | 0 kts | 180° |
| 2026-05-05 14:14 | 30.32386 | -9.41527 | 226 ft | 1 kts | 180° |
| 2026-05-05 14:14 | 30.32339 | -9.41528 | 226 ft | 13 kts | 185° |
| 2026-05-05 14:15 | 30.32273 | -9.41597 | 226 ft | 10 kts | 272° |
| 2026-05-05 14:15 | 30.32278 | -9.41794 | 226 ft | 65 kts | 272° |
| 2026-05-05 14:15 | 30.32277 | -9.42459 | 474 ft | 92 kts | 270° |
| 2026-05-05 14:15 | 30.32252 | -9.43197 | 946 ft | 91 kts | 267° |
| 2026-05-05 14:16 | 30.32251 | -9.43936 | 1402 ft | 94 kts | 268° |
| 2026-05-05 14:16 | 30.32255 | -9.44730 | 1889 ft | 98 kts | 268° |
| 2026-05-05 14:16 | 30.32263 | -9.45535 | 2433 ft | 102 kts | 269° |
| 2026-05-05 14:16 | 30.32291 | -9.46341 | 3045 ft | 102 kts | 272° |
| 2026-05-05 14:17 | 30.32267 | -9.47192 | 3494 ft | 107 kts | 270° |
| 2026-05-05 14:17 | 30.32215 | -9.48047 | 3974 ft | 107 kts | 269° |
| 2026-05-05 14:17 | 30.32107 | -9.48888 | 4499 ft | 108 kts | 244° |
| 2026-05-05 14:17 | 30.31467 | -9.49322 | 5001 ft | 117 kts | 184° |
| 2026-05-05 14:18 | 30.30687 | -9.48981 | 5461 ft | 125 kts | 154° |
| 2026-05-05 14:18 | 30.29952 | -9.48442 | 5952 ft | 125 kts | 151° |
| 2026-05-05 14:18 | 30.29224 | -9.47882 | 6445 ft | 126 kts | 150° |
| 2026-05-05 14:18 | 30.28489 | -9.47325 | 6902 ft | 127 kts | 153° |
| 2026-05-05 14:19 | 30.27655 | -9.46705 | 7013 ft | 159 kts | 153° |
| 2026-05-05 14:19 | 30.26644 | -9.45979 | 7015 ft | 181 kts | 153° |
| 2026-05-05 14:19 | 30.25526 | -9.45185 | 7014 ft | 195 kts | 153° |
| 2026-05-05 14:19 | 30.24348 | -9.44348 | 7015 ft | 200 kts | 153° |
| 2026-05-05 14:20 | 30.23166 | -9.43504 | 7035 ft | 198 kts | 153° |
| 2026-05-05 14:20 | 30.21943 | -9.42992 | 7033 ft | 184 kts | 184° |
| 2026-05-05 14:20 | 30.20740 | -9.43330 | 7032 ft | 176 kts | 208° |
| 2026-05-05 14:20 | 30.19647 | -9.43954 | 7034 ft | 173 kts | 216° |
| 2026-05-05 14:21 | 30.18602 | -9.44637 | 7035 ft | 175 kts | 207° |
| 2026-05-05 14:21 | 30.17450 | -9.45096 | 7032 ft | 174 kts | 207° |
| 2026-05-05 14:21 | 30.16314 | -9.45605 | 7036 ft | 176 kts | 207° |
| 2026-05-05 14:21 | 30.15164 | -9.46097 | 7033 ft | 177 kts | 207° |
| 2026-05-05 14:22 | 30.14003 | -9.46589 | 7029 ft | 178 kts | 205° |
| 2026-05-05 14:22 | 30.12836 | -9.47072 | 7033 ft | 178 kts | 205° |
| 2026-05-05 14:22 | 30.11664 | -9.47562 | 7031 ft | 179 kts | 205° |
| 2026-05-05 14:22 | 30.10497 | -9.48052 | 7032 ft | 179 kts | 205° |
| 2026-05-05 14:23 | 30.09324 | -9.48544 | 7031 ft | 179 kts | 205° |
| 2026-05-05 14:23 | 30.08171 | -9.49027 | 7033 ft | 178 kts | 205° |
| 2026-05-05 14:23 | 30.07001 | -9.49516 | 7031 ft | 178 kts | 205° |
| 2026-05-05 14:23 | 30.05833 | -9.50004 | 7033 ft | 178 kts | 205° |
| 2026-05-05 14:24 | 30.04663 | -9.50495 | 7026 ft | 179 kts | 205° |
| 2026-05-05 14:24 | 30.03490 | -9.50985 | 7026 ft | 179 kts | 204° |
| 2026-05-05 14:24 | 30.02314 | -9.51476 | 7023 ft | 179 kts | 204° |
| 2026-05-05 14:24 | 30.01146 | -9.51963 | 7023 ft | 178 kts | 205° |
| 2026-05-05 14:25 | 29.99993 | -9.52446 | 7026 ft | 179 kts | 205° |
| 2026-05-05 14:25 | 29.98822 | -9.52936 | 7026 ft | 179 kts | 204° |
| 2026-05-05 14:25 | 29.97648 | -9.53425 | 7026 ft | 179 kts | 204° |
| 2026-05-05 14:25 | 29.96480 | -9.53913 | 7027 ft | 178 kts | 204° |
| 2026-05-05 14:26 | 29.95316 | -9.54400 | 7028 ft | 178 kts | 204° |
| 2026-05-05 14:26 | 29.94150 | -9.54886 | 7029 ft | 178 kts | 204° |
| 2026-05-05 14:26 | 29.92986 | -9.55372 | 7029 ft | 178 kts | 204° |
| 2026-05-05 14:26 | 29.91830 | -9.55872 | 7031 ft | 178 kts | 205° |
| 2026-05-05 14:27 | 29.90684 | -9.56378 | 7031 ft | 179 kts | 205° |
| 2026-05-05 14:27 | 29.89519 | -9.56888 | 7026 ft | 179 kts | 205° |
| 2026-05-05 14:27 | 29.88356 | -9.57395 | 7030 ft | 179 kts | 205° |
| 2026-05-05 14:27 | 29.87191 | -9.57903 | 7027 ft | 178 kts | 205° |
| 2026-05-05 14:28 | 29.86031 | -9.58410 | 7027 ft | 178 kts | 205° |
| 2026-05-05 14:28 | 29.84877 | -9.58913 | 7028 ft | 178 kts | 205° |
| 2026-05-05 14:28 | 29.83722 | -9.59417 | 7027 ft | 177 kts | 205° |
| 2026-05-05 14:28 | 29.82569 | -9.59919 | 7029 ft | 177 kts | 205° |
| 2026-05-05 14:29 | 29.81416 | -9.60421 | 7027 ft | 177 kts | 205° |
| 2026-05-05 14:29 | 29.80260 | -9.60925 | 7025 ft | 177 kts | 205° |
| 2026-05-05 14:29 | 29.79103 | -9.61429 | 7026 ft | 178 kts | 205° |
| 2026-05-05 14:29 | 29.77954 | -9.61927 | 7027 ft | 179 kts | 205° |
| 2026-05-05 14:30 | 29.76772 | -9.62445 | 7029 ft | 180 kts | 205° |
| 2026-05-05 14:30 | 29.75619 | -9.62946 | 7029 ft | 178 kts | 205° |
| 2026-05-05 14:30 | 29.74458 | -9.63451 | 7029 ft | 178 kts | 205° |
| 2026-05-05 14:30 | 29.73299 | -9.63954 | 7032 ft | 178 kts | 205° |
| 2026-05-05 14:31 | 29.72135 | -9.64461 | 7029 ft | 179 kts | 205° |
| 2026-05-05 14:31 | 29.70975 | -9.64966 | 7030 ft | 178 kts | 206° |
| 2026-05-05 14:31 | 29.69816 | -9.65469 | 7029 ft | 178 kts | 205° |
| 2026-05-05 14:31 | 29.68655 | -9.65973 | 7028 ft | 179 kts | 205° |
| 2026-05-05 14:32 | 29.67489 | -9.66480 | 7026 ft | 178 kts | 205° |
| 2026-05-05 14:32 | 29.66339 | -9.66980 | 7025 ft | 179 kts | 205° |
| 2026-05-05 14:32 | 29.65173 | -9.67486 | 7025 ft | 179 kts | 205° |
| 2026-05-05 14:32 | 29.64008 | -9.67992 | 7027 ft | 179 kts | 205° |
| 2026-05-05 14:33 | 29.62844 | -9.68497 | 7027 ft | 179 kts | 205° |
| 2026-05-05 14:33 | 29.61689 | -9.69031 | 7036 ft | 178 kts | 212° |
| 2026-05-05 14:33 | 29.60612 | -9.69722 | 7033 ft | 177 kts | 213° |
| 2026-05-05 14:33 | 29.59537 | -9.70404 | 7037 ft | 176 kts | 213° |
| 2026-05-05 14:34 | 29.58471 | -9.71071 | 7034 ft | 177 kts | 213° |
| 2026-05-05 14:34 | 29.57393 | -9.71749 | 7031 ft | 176 kts | 213° |
| 2026-05-05 14:34 | 29.56318 | -9.72423 | 7031 ft | 175 kts | 213° |
| 2026-05-05 14:34 | 29.55247 | -9.73096 | 7031 ft | 176 kts | 213° |
| 2026-05-05 14:35 | 29.54174 | -9.73770 | 7031 ft | 176 kts | 213° |
| 2026-05-05 14:35 | 29.53095 | -9.74448 | 7029 ft | 176 kts | 213° |
| 2026-05-05 14:35 | 29.52020 | -9.75120 | 7030 ft | 175 kts | 213° |
| 2026-05-05 14:35 | 29.50946 | -9.75796 | 7032 ft | 177 kts | 212° |
| 2026-05-05 14:36 | 29.49858 | -9.76478 | 7036 ft | 179 kts | 212° |
| 2026-05-05 14:36 | 29.48777 | -9.77157 | 7029 ft | 178 kts | 213° |
| 2026-05-05 14:36 | 29.47690 | -9.77836 | 7033 ft | 178 kts | 213° |
| 2026-05-05 14:36 | 29.46609 | -9.78514 | 7030 ft | 176 kts | 213° |
| 2026-05-05 14:37 | 29.45538 | -9.79187 | 7026 ft | 175 kts | 214° |
| 2026-05-05 14:37 | 29.44467 | -9.79858 | 7024 ft | 175 kts | 214° |
| 2026-05-05 14:37 | 29.43392 | -9.80533 | 7025 ft | 176 kts | 214° |
| 2026-05-05 14:37 | 29.42333 | -9.81194 | 7027 ft | 175 kts | 213° |
| 2026-05-05 14:38 | 29.41258 | -9.81867 | 7031 ft | 176 kts | 214° |
| 2026-05-05 14:38 | 29.40182 | -9.82542 | 7024 ft | 176 kts | 213° |
| 2026-05-05 14:38 | 29.39108 | -9.83211 | 7031 ft | 176 kts | 214° |
| 2026-05-05 14:38 | 29.38040 | -9.83882 | 7026 ft | 174 kts | 213° |
| 2026-05-05 14:39 | 29.36981 | -9.84544 | 7026 ft | 173 kts | 213° |
| 2026-05-05 14:39 | 29.35921 | -9.85206 | 7027 ft | 174 kts | 213° |
| 2026-05-05 14:39 | 29.34857 | -9.85872 | 7029 ft | 175 kts | 213° |
| 2026-05-05 14:39 | 29.33790 | -9.86540 | 7021 ft | 175 kts | 213° |
| 2026-05-05 14:40 | 29.32730 | -9.87202 | 7023 ft | 176 kts | 213° |
| 2026-05-05 14:40 | 29.31653 | -9.87873 | 7024 ft | 176 kts | 213° |
| 2026-05-05 14:40 | 29.30580 | -9.88545 | 7025 ft | 176 kts | 213° |
| 2026-05-05 14:40 | 29.29511 | -9.89211 | 7016 ft | 173 kts | 213° |
| 2026-05-05 14:41 | 29.28449 | -9.89874 | 7020 ft | 175 kts | 213° |
| 2026-05-05 14:41 | 29.27369 | -9.90551 | 7018 ft | 177 kts | 213° |
| 2026-05-05 14:41 | 29.26286 | -9.91225 | 7016 ft | 177 kts | 213° |
| 2026-05-05 14:41 | 29.25200 | -9.91901 | 7017 ft | 177 kts | 213° |
| 2026-05-05 14:42 | 29.24116 | -9.92578 | 7017 ft | 178 kts | 213° |
| 2026-05-05 14:42 | 29.23028 | -9.93257 | 7014 ft | 178 kts | 213° |
| 2026-05-05 14:42 | 29.21945 | -9.93932 | 7009 ft | 178 kts | 213° |
| 2026-05-05 14:42 | 29.20865 | -9.94603 | 7011 ft | 178 kts | 213° |
| 2026-05-05 14:43 | 29.19772 | -9.95285 | 7012 ft | 179 kts | 213° |
| 2026-05-05 14:43 | 29.18674 | -9.95971 | 7006 ft | 181 kts | 213° |
| 2026-05-05 14:43 | 29.17577 | -9.96653 | 7003 ft | 178 kts | 213° |
| 2026-05-05 14:43 | 29.16495 | -9.97325 | 6997 ft | 175 kts | 214° |
| 2026-05-05 14:44 | 29.15422 | -9.97993 | 6995 ft | 175 kts | 214° |
| 2026-05-05 14:44 | 29.14349 | -9.98662 | 6999 ft | 175 kts | 214° |
| 2026-05-05 14:44 | 29.13289 | -9.99322 | 6995 ft | 176 kts | 214° |
| 2026-05-05 14:44 | 29.12223 | -9.99985 | 6990 ft | 173 kts | 214° |
| 2026-05-05 14:45 | 29.11172 | -10.00639 | 6997 ft | 171 kts | 214° |
| 2026-05-05 14:45 | 29.10122 | -10.01288 | 6998 ft | 172 kts | 214° |
| 2026-05-05 14:45 | 29.09068 | -10.01946 | 6993 ft | 172 kts | 214° |
| 2026-05-05 14:45 | 29.08016 | -10.02602 | 6998 ft | 172 kts | 213° |
| 2026-05-05 14:46 | 29.06961 | -10.03256 | 6998 ft | 173 kts | 214° |
| 2026-05-05 14:46 | 29.05898 | -10.03917 | 6998 ft | 174 kts | 214° |
| 2026-05-05 14:46 | 29.04836 | -10.04576 | 6996 ft | 173 kts | 213° |
| 2026-05-05 14:46 | 29.03782 | -10.05229 | 6995 ft | 171 kts | 214° |
| 2026-05-05 14:47 | 29.02736 | -10.05879 | 6996 ft | 172 kts | 213° |
| 2026-05-05 14:47 | 29.01693 | -10.06528 | 6996 ft | 172 kts | 214° |
| 2026-05-05 14:47 | 29.00812 | -10.07391 | 6991 ft | 165 kts | 237° |
| 2026-05-05 14:47 | 29.00225 | -10.08514 | 6994 ft | 165 kts | 242° |
| 2026-05-05 14:48 | 28.99637 | -10.09638 | 6995 ft | 166 kts | 242° |
| 2026-05-05 14:48 | 28.99045 | -10.10771 | 6994 ft | 165 kts | 242° |
| 2026-05-05 14:48 | 28.98458 | -10.11898 | 6997 ft | 165 kts | 242° |
| 2026-05-05 14:48 | 28.97869 | -10.13029 | 6996 ft | 165 kts | 242° |
| 2026-05-05 14:49 | 28.97280 | -10.14157 | 6996 ft | 165 kts | 242° |
| 2026-05-05 14:49 | 28.96890 | -10.14906 | 6995 ft | 166 kts | 242° |
| 2026-05-05 14:49 | 28.96110 | -10.16404 | 6999 ft | 166 kts | 242° |
| 2026-05-05 14:49 | 28.95520 | -10.17536 | 6999 ft | 166 kts | 242° |
| 2026-05-05 14:50 | 28.94925 | -10.18672 | 7002 ft | 166 kts | 242° |
| 2026-05-05 14:50 | 28.94526 | -10.19438 | 7004 ft | 167 kts | 242° |
| 2026-05-05 14:50 | 28.93932 | -10.20575 | 7005 ft | 166 kts | 242° |
| 2026-05-05 14:50 | 28.93150 | -10.22076 | 7007 ft | 166 kts | 242° |
| 2026-05-05 14:51 | 28.92758 | -10.22826 | 7008 ft | 167 kts | 242° |
| 2026-05-05 14:51 | 28.92159 | -10.23971 | 7006 ft | 168 kts | 242° |
| 2026-05-05 14:51 | 28.91561 | -10.25115 | 7009 ft | 168 kts | 242° |
| 2026-05-05 14:51 | 28.90964 | -10.26259 | 7009 ft | 167 kts | 242° |
| 2026-05-05 14:52 | 28.90369 | -10.27397 | 7012 ft | 167 kts | 242° |
| 2026-05-05 14:52 | 28.89774 | -10.28532 | 7019 ft | 166 kts | 242° |
| 2026-05-05 14:52 | 28.89179 | -10.29670 | 7019 ft | 167 kts | 242° |
| 2026-05-05 14:52 | 28.88585 | -10.30806 | 7021 ft | 167 kts | 242° |
| 2026-05-05 14:53 | 28.87990 | -10.31943 | 7036 ft | 167 kts | 242° |
| 2026-05-05 14:53 | 28.87392 | -10.33087 | 7031 ft | 167 kts | 242° |
| 2026-05-05 14:53 | 28.86804 | -10.34208 | 7035 ft | 167 kts | 242° |
| 2026-05-05 14:53 | 28.86207 | -10.35346 | 7032 ft | 166 kts | 242° |
| 2026-05-05 14:54 | 28.85613 | -10.36478 | 7032 ft | 166 kts | 243° |
| 2026-05-05 14:54 | 28.85021 | -10.37611 | 7033 ft | 167 kts | 242° |
| 2026-05-05 14:54 | 28.84427 | -10.38742 | 7010 ft | 166 kts | 242° |
| 2026-05-05 14:54 | 28.83834 | -10.39872 | 7013 ft | 166 kts | 242° |
| 2026-05-05 14:55 | 28.83244 | -10.40999 | 7012 ft | 165 kts | 242° |
| 2026-05-05 14:55 | 28.82657 | -10.42115 | 7008 ft | 163 kts | 242° |
| 2026-05-05 14:55 | 28.82071 | -10.43216 | 7023 ft | 163 kts | 242° |
| 2026-05-05 14:55 | 28.81492 | -10.44333 | 7018 ft | 164 kts | 242° |
| 2026-05-05 14:56 | 28.80910 | -10.45446 | 7019 ft | 163 kts | 243° |
| 2026-05-05 14:56 | 28.80328 | -10.46554 | 7023 ft | 164 kts | 243° |
| 2026-05-05 14:56 | 28.79747 | -10.47660 | 7018 ft | 165 kts | 242° |
| 2026-05-05 14:56 | 28.79156 | -10.48781 | 7019 ft | 165 kts | 242° |
| 2026-05-05 14:57 | 28.78568 | -10.49902 | 7019 ft | 165 kts | 242° |
| 2026-05-05 14:57 | 28.77979 | -10.51022 | 7019 ft | 165 kts | 243° |
| 2026-05-05 14:57 | 28.77391 | -10.52141 | 7021 ft | 164 kts | 242° |
| 2026-05-05 14:57 | 28.76802 | -10.53258 | 7018 ft | 165 kts | 242° |
| 2026-05-05 14:58 | 28.76212 | -10.54380 | 7021 ft | 165 kts | 242° |
| 2026-05-05 14:58 | 28.75622 | -10.55502 | 7010 ft | 165 kts | 241° |
| 2026-05-05 14:58 | 28.75030 | -10.56618 | 7013 ft | 165 kts | 241° |
| 2026-05-05 14:58 | 28.74390 | -10.57682 | 7020 ft | 165 kts | 238° |
| 2026-05-05 14:59 | 28.73735 | -10.58763 | 7022 ft | 165 kts | 239° |
| 2026-05-05 14:59 | 28.73091 | -10.59843 | 7018 ft | 165 kts | 239° |
| 2026-05-05 14:59 | 28.72447 | -10.60928 | 7022 ft | 166 kts | 239° |
| 2026-05-05 14:59 | 28.71799 | -10.62018 | 7021 ft | 166 kts | 239° |
| 2026-05-05 15:00 | 28.71151 | -10.63108 | 7013 ft | 166 kts | 239° |
| 2026-05-05 15:00 | 28.70720 | -10.63833 | 7018 ft | 167 kts | 239° |
| 2026-05-05 15:00 | 28.69852 | -10.65292 | 7018 ft | 168 kts | 238° |
| 2026-05-05 15:00 | 28.69193 | -10.66399 | 7016 ft | 169 kts | 239° |
| 2026-05-05 15:01 | 28.68537 | -10.67499 | 7015 ft | 167 kts | 239° |
| 2026-05-05 15:01 | 28.67886 | -10.68595 | 7012 ft | 167 kts | 239° |
| 2026-05-05 15:01 | 28.67225 | -10.69697 | 7018 ft | 168 kts | 239° |
| 2026-05-05 15:01 | 28.66571 | -10.70802 | 7009 ft | 168 kts | 239° |
| 2026-05-05 15:02 | 28.65918 | -10.71899 | 7010 ft | 166 kts | 239° |
| 2026-05-05 15:02 | 28.65271 | -10.72985 | 7016 ft | 166 kts | 239° |
| 2026-05-05 15:02 | 28.64619 | -10.74078 | 7010 ft | 166 kts | 239° |
| 2026-05-05 15:02 | 28.63972 | -10.75162 | 7010 ft | 165 kts | 239° |
| 2026-05-05 15:03 | 28.63326 | -10.76246 | 7011 ft | 165 kts | 239° |
| 2026-05-05 15:03 | 28.62684 | -10.77321 | 7011 ft | 167 kts | 239° |
| 2026-05-05 15:03 | 28.62034 | -10.78414 | 7018 ft | 167 kts | 239° |
| 2026-05-05 15:03 | 28.61379 | -10.79509 | 7014 ft | 167 kts | 239° |
| 2026-05-05 15:04 | 28.60727 | -10.80598 | 7012 ft | 166 kts | 238° |
| 2026-05-05 15:04 | 28.60081 | -10.81680 | 7009 ft | 164 kts | 239° |
| 2026-05-05 15:04 | 28.59442 | -10.82750 | 7009 ft | 163 kts | 240° |
| 2026-05-05 15:04 | 28.58804 | -10.83819 | 7015 ft | 164 kts | 239° |
| 2026-05-05 15:05 | 28.57510 | -10.85983 | 7004 ft | 165 kts | 239° |
| 2026-05-05 15:05 | 28.56860 | -10.87070 | 7002 ft | 166 kts | 239° |
| 2026-05-05 15:05 | 28.56214 | -10.88152 | 7002 ft | 165 kts | 239° |
| 2026-05-05 15:06 | 28.55568 | -10.89231 | 7001 ft | 165 kts | 239° |
| 2026-05-05 15:06 | 28.54929 | -10.90298 | 7003 ft | 166 kts | 239° |
| 2026-05-05 15:06 | 28.54279 | -10.91383 | 7000 ft | 166 kts | 238° |
| 2026-05-05 15:06 | 28.53625 | -10.92476 | 6992 ft | 167 kts | 239° |
| 2026-05-05 15:07 | 28.52957 | -10.93595 | 6800 ft | 172 kts | 239° |
| 2026-05-05 15:07 | 28.52288 | -10.94714 | 6579 ft | 170 kts | 239° |
| 2026-05-05 15:07 | 28.51635 | -10.95801 | 6353 ft | 169 kts | 239° |
| 2026-05-05 15:07 | 28.50977 | -10.96898 | 6117 ft | 167 kts | 240° |
| 2026-05-05 15:08 | 28.50324 | -10.97987 | 5902 ft | 165 kts | 240° |
| 2026-05-05 15:08 | 28.49674 | -10.99067 | 5681 ft | 166 kts | 238° |
| 2026-05-05 15:08 | 28.49020 | -11.00149 | 5463 ft | 165 kts | 239° |
| 2026-05-05 15:08 | 28.48379 | -11.01221 | 5243 ft | 163 kts | 241° |
| 2026-05-05 15:09 | 28.47740 | -11.02297 | 5031 ft | 166 kts | 238° |
| 2026-05-05 15:09 | 28.47083 | -11.03390 | 4807 ft | 168 kts | 239° |
| 2026-05-05 15:09 | 28.46425 | -11.04486 | 4582 ft | 169 kts | 238° |
| 2026-05-05 15:09 | 28.45755 | -11.05594 | 4354 ft | 169 kts | 239° |
| 2026-05-05 15:10 | 28.45095 | -11.06692 | 4133 ft | 169 kts | 240° |
| 2026-05-05 15:10 | 28.44437 | -11.07792 | 3908 ft | 170 kts | 240° |
| 2026-05-05 15:10 | 28.43771 | -11.08907 | 3684 ft | 172 kts | 238° |
| 2026-05-05 15:10 | 28.43090 | -11.10034 | 3454 ft | 174 kts | 240° |
| 2026-05-05 15:11 | 28.42401 | -11.11180 | 3230 ft | 178 kts | 239° |
| 2026-05-05 15:11 | 28.41703 | -11.12361 | 2978 ft | 179 kts | 243° |
| 2026-05-05 15:11 | 28.41083 | -11.13599 | 2622 ft | 179 kts | 245° |
| 2026-05-05 15:11 | 28.40494 | -11.14820 | 2237 ft | 174 kts | 244° |
| 2026-05-05 15:12 | 28.39908 | -11.15975 | 1963 ft | 164 kts | 244° |
| 2026-05-05 15:12 | 28.39326 | -11.17037 | 1763 ft | 151 kts | 244° |
| 2026-05-05 15:12 | 28.38973 | -11.18030 | 1726 ft | 120 kts | 274° |
| 2026-05-05 15:12 | 28.39242 | -11.18785 | 1645 ft | 96 kts | 324° |
| 2026-05-05 15:13 | 28.39826 | -11.19007 | 1583 ft | 90 kts | 3° |
| 2026-05-05 15:13 | 28.40391 | -11.18796 | 1492 ft | 82 kts | 22° |
| 2026-05-05 15:13 | 28.40860 | -11.18508 | 1363 ft | 75 kts | 29° |
| 2026-05-05 15:13 | 28.41272 | -11.18202 | 1229 ft | 66 kts | 25° |
| 2026-05-05 15:14 | 28.41682 | -11.17956 | 1147 ft | 67 kts | 20° |
| 2026-05-05 15:14 | 28.42117 | -11.17718 | 1088 ft | 73 kts | 20° |
| 2026-05-05 15:14 | 28.42598 | -11.17450 | 984 ft | 78 kts | 24° |
| 2026-05-05 15:14 | 28.43081 | -11.17166 | 865 ft | 76 kts | 25° |
| 2026-05-05 15:15 | 28.43517 | -11.16900 | 769 ft | 68 kts | 21° |
| 2026-05-05 15:15 | 28.43945 | -11.16654 | 669 ft | 67 kts | 20° |
| 2026-05-05 15:15 | 28.44256 | -11.16469 | 640 ft | 33 kts | 25° |
| 2026-05-05 15:15 | 28.44439 | -11.16359 | 643 ft | 30 kts | 31° |
| 2026-05-05 15:16 | 28.44627 | -11.16249 | 642 ft | 25 kts | 32° |
| 2026-05-05 15:16 | 28.44663 | -11.16124 | 640 ft | 19 kts | 117° |
| 2026-05-05 15:16 | 28.44619 | -11.16006 | 638 ft | 14 kts | 81° |
| 2026-05-05 15:16 | 28.44604 | -11.15942 | 639 ft | 9 kts | 117° |
| 2026-05-05 15:17 | 28.44623 | -11.15939 | 638 ft | 3 kts | 257° |
| 2026-05-05 15:17 | 28.44623 | -11.15940 | 638 ft | 0 kts | 257° |
| 2026-05-05 15:25 | 28.44623 | -11.15939 | 638 ft | 0 kts | 257° |